This is the latest recevied weather packets stored in our database for station/object W6ORV. If no packets are shown the sender has not sent any weather packets the latest 1 day(s).
| Time | Temp. | Humidity | Pressure | Rain* | Wind** | Luminosity | Snow |
|---|---|---|---|---|---|---|---|
| 1778025575 | 20° C | 54% | 4299.2 hPa | 0 mm | 0.45 m/s, 226° | 190 W/m² | - |
| 1778025273 | 19.44° C | 51% | 4299.1 hPa | 0 mm | 0 m/s | 223 W/m² | - |
| 1778024969 | 20.56° C | 48% | 4299.1 hPa | 0 mm | 2.24 m/s, 225° | 269 W/m² | - |
| 1778024667 | 20° C | 48% | 4299.1 hPa | 0 mm | 0.89 m/s, 230° | 364 W/m² | - |
| 1778024363 | 20° C | 50% | 4298.9 hPa | 0 mm | 2.24 m/s, 266° | 256 W/m² | - |
| 1778024061 | 20° C | 49% | 4299.3 hPa | 0 mm | 1.34 m/s, 252° | 286 W/m² | - |
| 1778023759 | 19.44° C | 51% | 4299.2 hPa | 0 mm | 0.89 m/s, 169° | 471 W/m² | - |
| 1778023456 | 20° C | 52% | 4299.3 hPa | 0 mm | 1.34 m/s, 265° | 313 W/m² | - |
| 1778023153 | 20.56° C | 51% | 4299.2 hPa | 0 mm | 0 m/s | 188 W/m² | - |
| 1778022850 | 20.56° C | 49% | 4299.2 hPa | 0 mm | 1.34 m/s, 221° | 305 W/m² | - |
| 1778022548 | 21.11° C | 48% | 4299.2 hPa | 0 mm | 2.24 m/s, 298° | 385 W/m² | - |
| 1778022246 | 20.56° C | 47% | 4299.2 hPa | 0 mm | 1.34 m/s, 297° | 709 W/m² | - |
| 1778021942 | 21.11° C | 47% | 4299.1 hPa | 0 mm | 0.45 m/s, 113° | 357 W/m² | - |
| 1778021640 | 21.67° C | 45% | 4299.2 hPa | 0 mm | 1.34 m/s, 250° | 723 W/m² | - |
| 1778021340 | 20.56° C | 48% | 4299.3 hPa | 0 mm | 0 m/s | 702 W/m² | - |
| 1778021038 | 20.56° C | 48% | 4299.4 hPa | 0 mm | 1.34 m/s, 276° | 375 W/m² | - |
| 1778020734 | 21.11° C | 44% | 4299.3 hPa | 0 mm | 0.45 m/s, 308° | 545 W/m² | - |
| 1778020431 | 20.56° C | 47% | 4299.4 hPa | 0 mm | 1.34 m/s, 296° | 576 W/m² | - |
| 1778020127 | 21.11° C | 45% | 4299.4 hPa | 0 mm | 1.79 m/s, 280° | 799 W/m² | - |
| 1778019824 | 20.56° C | 46% | 4299.6 hPa | 0 mm | 0 m/s | 851 W/m² | - |
| 1778019521 | 20.56° C | 45% | 4299.5 hPa | 0 mm | 1.34 m/s, 279° | 839 W/m² | - |
| 1778019217 | 20.56° C | 46% | 4299.8 hPa | 0 mm | 0.45 m/s, 221° | 668 W/m² | - |
| 1778018915 | 21.11° C | 46% | 4299.6 hPa | 0 mm | 3.13 m/s, 321° | 599 W/m² | - |
| 1778018611 | 19.44° C | 49% | 4299.7 hPa | 0 mm | 0 m/s | 655 W/m² | - |
| 1778018310 | 18.89° C | 51% | 4299.8 hPa | 0 mm | 1.79 m/s, 232° | 678 W/m² | - |
* Rain latest hour (hover to see other rain measurements)
** Current wind speed in m/s (hover to see current wind gust speed)